Time;durP1;ratioP1;P1;durP2;ratioP2;P2;SDS_P1;SDS_P2;PMS_P1;PMS_P2;Temp;Humidity;BMP_temperature;BMP_pressure;BME280_temperature;BME280_humidity;BME280_pressure;Samples;Min_cycle;Max_cycle;Signal;HPM_P1;HPM_P2
2022/12/14 00:02:07;;;;;;;24.73;14.70;;;0.30;99.90;;;;;;5054229;28;20496;-30
2022/12/14 00:04:35;;;;;;;26.23;15.77;;;0.30;99.90;;;;;;5054247;28;20222;-31
2022/12/14 00:07:02;;;;;;;27.40;15.77;;;0.30;99.90;;;;;;5066334;28;20794;-30
2022/12/14 00:09:29;;;;;;;25.37;14.90;;;0.20;99.90;;;;;;5061095;28;20238;-30
2022/12/14 00:11:56;;;;;;;26.07;14.10;;;0.20;99.90;;;;;;5065854;28;20195;-30
2022/12/14 00:14:23;;;;;;;25.97;15.03;;;0.20;99.90;;;;;;5064303;28;20223;-30
2022/12/14 00:16:55;;;;;;;27.03;15.17;;;0.20;99.90;;;;;;5061769;28;20216;-30
2022/12/14 00:19:27;;;;;;;26.17;14.90;;;0.20;99.90;;;;;;5065878;28;20200;-30
2022/12/14 00:21:54;;;;;;;25.67;14.30;;;0.20;99.90;;;;;;5056382;28;20316;-30
2022/12/14 00:24:22;;;;;;;27.90;15.47;;;0.20;99.90;;;;;;5051253;28;20207;-30
2022/12/14 00:26:49;;;;;;;26.77;15.43;;;0.20;99.90;;;;;;5065835;28;20633;-30
2022/12/14 00:29:16;;;;;;;26.50;14.83;;;0.20;99.90;;;;;;5046002;28;20674;-30
2022/12/14 00:31:50;;;;;;;23.73;14.90;;;0.20;99.90;;;;;;5045976;28;20208;-30
2022/12/14 00:34:18;;;;;;;25.30;14.93;;;0.20;99.90;;;;;;5058197;28;20210;-30
2022/12/14 00:36:45;;;;;;;24.90;15.53;;;0.20;99.90;;;;;;5055119;28;20682;-30
2022/12/14 00:39:16;;;;;;;24.77;15.67;;;0.20;99.90;;;;;;5053835;28;20326;-30
2022/12/14 00:41:48;;;;;;;25.73;14.90;;;0.20;99.90;;;;;;5049750;28;20200;-30
2022/12/14 00:44:15;;;;;;;26.20;14.87;;;0.20;99.90;;;;;;5046756;28;20234;-30
2022/12/14 00:46:42;;;;;;;25.67;14.87;;;0.20;99.90;;;;;;5046356;28;20298;-30
2022/12/14 00:49:14;;;;;;;24.07;13.83;;;0.20;99.90;;;;;;5020180;28;1120119;-30
2022/12/14 00:51:46;;;;;;;28.13;14.47;;;0.20;99.90;;;;;;5047295;28;20204;-30
2022/12/14 00:54:16;;;;;;;27.50;14.77;;;0.20;99.90;;;;;;5046327;28;20686;-31
2022/12/14 00:56:45;;;;;;;23.93;15.00;;;0.20;99.90;;;;;;5047052;28;20260;-30
2022/12/14 00:59:16;;;;;;;24.93;14.40;;;0.20;99.90;;;;;;5047153;28;20215;-30
2022/12/14 01:01:45;;;;;;;23.90;14.23;;;0.20;99.90;;;;;;5061676;28;20203;-30
2022/12/14 01:04:18;;;;;;;23.13;13.93;;;0.20;99.90;;;;;;5046594;28;20261;-30
2022/12/14 01:06:50;;;;;;;21.37;13.60;;;0.20;99.90;;;;;;5045909;28;20212;-30
2022/12/14 01:09:19;;;;;;;26.40;14.30;;;0.10;99.90;;;;;;5044225;28;20789;-30
2022/12/14 01:11:46;;;;;;;24.77;14.43;;;0.10;99.90;;;;;;5060099;28;20199;-30
2022/12/14 01:14:15;;;;;;;24.23;14.73;;;0.10;99.90;;;;;;5064074;28;20214;-30
2022/12/14 01:16:45;;;;;;;25.17;14.20;;;0.20;99.90;;;;;;5063998;28;20718;-30
2022/12/14 01:19:13;;;;;;;20.93;13.00;;;0.10;99.90;;;;;;5046574;28;20212;-30
2022/12/14 01:21:40;;;;;;;26.93;15.13;;;0.10;99.90;;;;;;5050860;28;20290;-30
2022/12/14 01:24:10;;;;;;;23.27;13.87;;;0.20;99.90;;;;;;5065387;28;20218;-31
2022/12/14 01:26:38;;;;;;;24.63;12.97;;;0.20;99.90;;;;;;5064943;28;20206;-30
2022/12/14 01:29:06;;;;;;;24.30;14.27;;;0.20;99.90;;;;;;5059009;28;20557;-30
2022/12/14 01:31:35;;;;;;;26.73;13.73;;;0.10;99.90;;;;;;5066074;28;20298;-30
2022/12/14 01:34:03;;;;;;;23.83;13.37;;;0.20;99.90;;;;;;5046594;28;20625;-30
2022/12/14 01:36:34;;;;;;;22.93;13.67;;;0.20;99.90;;;;;;5046264;28;20216;-30
2022/12/14 01:39:12;;;;;;;24.13;13.80;;;0.20;99.90;;;;;;5059147;28;20846;-30
2022/12/14 01:41:46;;;;;;;22.63;13.77;;;0.10;99.90;;;;;;5052270;28;20563;-30
2022/12/14 01:44:16;;;;;;;24.13;13.57;;;0.10;99.90;;;;;;5064398;28;20215;-30
2022/12/14 01:46:59;;;;;;;22.90;13.70;;;0.20;99.90;;;;;;5062263;28;20298;-30
2022/12/14 01:50:09;;;;;;;25.73;14.67;;;0.20;99.90;;;;;;5041803;28;20222;-30
2022/12/14 01:52:43;;;;;;;24.67;13.37;;;0.20;99.90;;;;;;5054168;28;20250;-30
2022/12/14 01:55:32;;;;;;;24.57;14.20;;;0.20;99.90;;;;;;5061787;28;20377;-30
2022/12/14 01:58:02;;;;;;;22.33;13.67;;;0.20;99.90;;;;;;5055440;28;20231;-30
2022/12/14 02:00:29;;;;;;;22.97;13.50;;;0.20;99.90;;;;;;5049741;28;20246;-30
2022/12/14 02:03:10;;;;;;;22.77;13.57;;;0.20;99.90;;;;;;5057807;28;20207;-30
2022/12/14 02:05:46;;;;;;;21.80;13.20;;;0.20;99.90;;;;;;5059249;28;20575;-30
2022/12/14 02:08:16;;;;;;;23.00;13.97;;;0.20;99.90;;;;;;5064633;28;20582;-30
2022/12/14 02:10:46;;;;;;;22.20;12.97;;;0.20;99.90;;;;;;5057446;28;20680;-30
2022/12/14 02:13:20;;;;;;;20.93;13.27;;;0.20;99.90;;;;;;5064785;28;20222;-30
2022/12/14 02:15:52;;;;;;;24.13;14.13;;;0.20;99.90;;;;;;5054364;28;20240;-30
2022/12/14 02:18:22;;;;;;;24.10;12.83;;;0.20;99.90;;;;;;5053765;28;20258;-30
2022/12/14 02:21:11;;;;;;;22.23;13.60;;;0.20;99.90;;;;;;5060819;28;20201;-30
2022/12/14 02:23:53;;;;;;;22.40;12.70;;;0.20;99.90;;;;;;5063644;28;20663;-29
2022/12/14 02:27:02;;;;;;;21.10;12.87;;;0.20;99.90;;;;;;5062666;28;20205;-29
2022/12/14 02:29:38;;;;;;;20.37;13.47;;;0.20;99.90;;;;;;5059402;28;20238;-29
2022/12/14 02:32:27;;;;;;;20.80;13.03;;;0.20;99.90;;;;;;5060620;28;21044;-29
2022/12/14 02:35:11;;;;;;;22.93;13.37;;;0.20;99.90;;;;;;5045418;28;20338;-29
2022/12/14 02:37:56;;;;;;;21.33;12.77;;;0.20;99.90;;;;;;5057697;28;20218;-29
2022/12/14 02:40:37;;;;;;;24.77;13.90;;;0.20;99.90;;;;;;5052892;28;20295;-29
2022/12/14 02:43:23;;;;;;;22.90;13.37;;;0.20;99.90;;;;;;5045574;28;20218;-30
2022/12/14 02:45:56;;;;;;;21.17;12.40;;;0.20;99.90;;;;;;5050719;28;20199;-29
2022/12/14 02:48:38;;;;;;;20.47;12.93;;;0.20;99.90;;;;;;5045733;28;20224;-29
2022/12/14 02:51:22;;;;;;;23.20;13.33;;;0.20;99.90;;;;;;5045766;28;20327;-29
2022/12/14 02:54:40;;;;;;;20.97;13.23;;;0.20;99.90;;;;;;5044664;28;20208;-29
2022/12/14 02:57:36;;;;;;;20.23;12.87;;;0.20;99.90;;;;;;5043094;28;20278;-29
2022/12/14 03:00:06;;;;;;;24.70;14.10;;;0.20;99.90;;;;;;5053608;28;20207;-29
2022/12/14 03:02:36;;;;;;;24.97;14.03;;;0.30;99.90;;;;;;5045123;28;20274;-29
2022/12/14 03:05:04;;;;;;;24.20;13.20;;;0.30;99.90;;;;;;5057274;28;20207;-29
2022/12/14 03:07:56;;;;;;;24.33;14.43;;;0.30;99.90;;;;;;5065245;28;20408;-29
2022/12/14 03:10:27;;;;;;;23.73;13.83;;;0.30;99.90;;;;;;5045938;28;20235;-29
2022/12/14 03:13:02;;;;;;;21.67;13.53;;;0.30;99.90;;;;;;5055522;28;20241;-29
2022/12/14 03:15:31;;;;;;;22.97;13.63;;;0.30;99.90;;;;;;5047230;28;20200;-29
2022/12/14 03:18:02;;;;;;;23.63;13.37;;;0.30;99.90;;;;;;5057847;28;20235;-29
2022/12/14 03:20:32;;;;;;;24.10;13.70;;;0.30;99.90;;;;;;5063111;28;20265;-30
2022/12/14 03:23:01;;;;;;;23.37;13.80;;;0.30;99.90;;;;;;5061726;28;20598;-29
2022/12/14 03:25:37;;;;;;;22.93;13.57;;;0.30;99.90;;;;;;5046419;28;20996;-29
2022/12/14 03:28:12;;;;;;;23.43;12.90;;;0.40;99.90;;;;;;5044890;28;20211;-29
2022/12/14 03:30:41;;;;;;;22.70;12.93;;;0.40;99.90;;;;;;5051080;28;20215;-29
2022/12/14 03:33:31;;;;;;;23.57;13.50;;;0.40;99.90;;;;;;5043403;28;20200;-29
2022/12/14 03:36:09;;;;;;;24.63;12.90;;;0.40;99.90;;;;;;5064142;28;20204;-29
2022/12/14 03:38:46;;;;;;;21.97;12.83;;;0.40;99.90;;;;;;5062998;28;20656;-29
2022/12/14 03:41:27;;;;;;;20.83;12.53;;;0.40;99.90;;;;;;5063823;28;20595;-29
2022/12/14 03:44:17;;;;;;;23.17;13.77;;;0.40;99.90;;;;;;5058180;28;20273;-29
2022/12/14 03:47:03;;;;;;;21.30;12.83;;;0.40;99.90;;;;;;5054077;28;20586;-29
2022/12/14 03:49:51;;;;;;;22.57;13.57;;;0.40;99.90;;;;;;5058660;28;20263;-29
2022/12/14 03:52:36;;;;;;;21.20;13.30;;;0.40;99.90;;;;;;5064081;28;20786;-29
2022/12/14 03:55:35;;;;;;;20.40;13.43;;;0.40;99.90;;;;;;5064698;28;20678;-29
2022/12/14 03:58:20;;;;;;;20.60;12.97;;;0.40;99.90;;;;;;5055978;28;20636;-29
2022/12/14 04:01:02;;;;;;;22.03;13.63;;;0.40;99.90;;;;;;5062969;28;20204;-29
2022/12/14 04:03:53;;;;;;;24.73;13.23;;;0.40;99.90;;;;;;5063340;28;20661;-29
2022/12/14 04:06:26;;;;;;;23.97;14.13;;;0.40;99.90;;;;;;5048124;28;20203;-29
2022/12/14 04:09:23;;;;;;;23.40;13.67;;;0.40;99.90;;;;;;5052989;28;20211;-29
2022/12/14 04:20:39;;;;;;;22.13;13.70;;;0.40;99.90;;;;;;5047702;28;20311;-29
2022/12/14 04:23:15;;;;;;;22.03;12.57;;;0.40;99.90;;;;;;5047642;28;20780;-29
2022/12/14 04:26:06;;;;;;;22.30;12.57;;;0.40;99.90;;;;;;5064971;28;20592;-29
2022/12/14 04:31:46;;;;;;;22.30;13.80;;;0.40;99.90;;;;;;5067014;28;20587;-29
2022/12/14 04:34:19;;;;;;;22.30;14.10;;;0.50;99.90;;;;;;5059715;28;20199;-29
2022/12/14 04:36:56;;;;;;;20.77;13.20;;;0.40;99.90;;;;;;5060529;28;20732;-29
2022/12/14 04:39:53;;;;;;;22.93;14.00;;;0.50;99.90;;;;;;5066200;28;20633;-29
2022/12/14 04:42:27;;;;;;;20.47;13.23;;;0.50;99.90;;;;;;5066675;28;20208;-29
2022/12/14 04:45:05;;;;;;;22.70;13.83;;;0.50;99.90;;;;;;5055480;28;20587;-29
2022/12/14 04:47:37;;;;;;;20.93;12.77;;;0.50;99.90;;;;;;5053498;28;20303;-29
2022/12/14 04:50:29;;;;;;;23.33;13.43;;;0.50;99.90;;;;;;5063419;28;20243;-29
2022/12/14 04:53:18;;;;;;;23.87;13.60;;;0.50;99.90;;;;;;5066715;28;20235;-30
2022/12/14 04:56:09;;;;;;;21.43;13.37;;;0.50;99.90;;;;;;5065441;28;20639;-30
2022/12/14 04:58:39;;;;;;;22.17;13.33;;;0.50;99.90;;;;;;5066691;28;20242;-29
2022/12/14 05:01:45;;;;;;;19.73;12.70;;;0.50;99.90;;;;;;5059769;28;20201;-29
2022/12/14 05:04:24;;;;;;;22.77;12.83;;;0.50;99.90;;;;;;5049480;28;20323;-29
2022/12/14 05:07:21;;;;;;;20.87;12.90;;;0.50;99.90;;;;;;5049091;28;20631;-29
2022/12/14 05:09:59;;;;;;;20.97;12.30;;;0.50;99.90;;;;;;5065321;28;20207;-29
2022/12/14 05:12:34;;;;;;;21.97;12.37;;;0.50;99.90;;;;;;5066655;28;20211;-29
2022/12/14 05:15:10;;;;;;;22.93;12.90;;;0.50;99.90;;;;;;5053084;28;20215;-29
2022/12/14 05:17:43;;;;;;;22.77;12.80;;;0.50;99.90;;;;;;5065587;28;20299;-29
2022/12/14 05:20:16;;;;;;;25.60;13.50;;;0.60;99.90;;;;;;5063989;28;20214;-29
2022/12/14 05:22:44;;;;;;;23.47;13.87;;;0.60;99.90;;;;;;5051196;28;20232;-29
2022/12/14 05:25:11;;;;;;;22.57;13.53;;;0.60;99.90;;;;;;5043850;28;20208;-29
2022/12/14 05:27:40;;;;;;;24.23;14.00;;;0.60;99.90;;;;;;5052881;28;20627;-29
2022/12/14 05:30:10;;;;;;;24.67;13.50;;;0.60;99.90;;;;;;5064243;28;20313;-29
2022/12/14 05:32:38;;;;;;;24.57;13.00;;;0.60;99.90;;;;;;5064151;28;20269;-29
2022/12/14 05:35:07;;;;;;;24.23;13.47;;;0.60;99.90;;;;;;5062973;28;20212;-29
2022/12/14 05:37:37;;;;;;;27.63;15.07;;;0.60;99.90;;;;;;5064056;28;20314;-30
2022/12/14 05:40:07;;;;;;;25.30;13.63;;;0.70;99.90;;;;;;5063423;28;20315;-29
2022/12/14 05:42:34;;;;;;;26.13;13.70;;;0.70;99.90;;;;;;5061480;28;20670;-29
2022/12/14 05:45:12;;;;;;;27.13;15.20;;;0.70;99.90;;;;;;5051695;28;20639;-29
2022/12/14 05:47:40;;;;;;;27.60;14.63;;;0.70;99.90;;;;;;5061872;28;20326;-29
2022/12/14 05:50:09;;;;;;;28.63;14.73;;;0.70;99.90;;;;;;5048596;28;20351;-29
2022/12/14 05:52:44;;;;;;;27.60;14.30;;;0.70;99.90;;;;;;5055859;28;20690;-29
2022/12/14 05:55:11;;;;;;;24.77;13.90;;;0.70;99.90;;;;;;5062185;28;20470;-29
2022/12/14 05:57:40;;;;;;;25.57;14.83;;;0.70;99.90;;;;;;5064735;28;20219;-29
2022/12/14 06:00:10;;;;;;;26.07;13.60;;;0.70;99.90;;;;;;5054561;28;20300;-29
2022/12/14 06:02:42;;;;;;;24.70;13.57;;;0.70;99.90;;;;;;5053565;28;20230;-29
2022/12/14 06:05:12;;;;;;;23.03;14.17;;;0.70;99.90;;;;;;5053718;28;20223;-29
2022/12/14 06:07:42;;;;;;;24.53;13.60;;;0.70;99.90;;;;;;5057556;28;20259;-29
2022/12/14 06:10:11;;;;;;;25.30;14.00;;;0.70;99.90;;;;;;5050070;28;20249;-29
2022/12/14 06:12:42;;;;;;;25.57;14.30;;;0.70;99.90;;;;;;5049288;28;20216;-29
2022/12/14 06:15:09;;;;;;;26.63;14.23;;;0.70;99.90;;;;;;5055665;28;20677;-29
2022/12/14 06:17:44;;;;;;;27.77;15.30;;;0.70;99.90;;;;;;5049997;28;20792;-29
2022/12/14 06:20:13;;;;;;;24.03;13.60;;;0.70;99.90;;;;;;5055066;28;20199;-29
2022/12/14 06:22:42;;;;;;;23.97;13.80;;;0.70;99.90;;;;;;5049159;28;20195;-29
2022/12/14 06:25:14;;;;;;;24.37;13.67;;;0.80;99.90;;;;;;5056404;28;20572;-29
2022/12/14 06:27:43;;;;;;;23.10;13.23;;;0.80;99.90;;;;;;5051227;28;20240;-29
2022/12/14 06:30:11;;;;;;;26.63;14.53;;;0.70;99.90;;;;;;5061674;28;20215;-31
2022/12/14 06:32:43;;;;;;;27.67;14.97;;;0.80;99.90;;;;;;5051873;28;20239;-31
2022/12/14 06:35:13;;;;;;;25.27;14.43;;;0.80;99.90;;;;;;5055777;28;20212;-31
2022/12/14 06:37:40;;;;;;;29.10;15.00;;;0.70;99.90;;;;;;5057409;28;20308;-31
2022/12/14 06:40:10;;;;;;;24.43;13.90;;;0.80;99.90;;;;;;5063245;28;20208;-30
2022/12/14 06:42:39;;;;;;;24.67;13.97;;;0.80;99.90;;;;;;5064912;28;20226;-29
2022/12/14 06:45:07;;;;;;;26.23;14.13;;;0.80;99.90;;;;;;5059269;28;20202;-29
2022/12/14 06:47:36;;;;;;;26.13;14.63;;;0.80;99.90;;;;;;5052481;28;20203;-29
2022/12/14 06:50:04;;;;;;;48.97;16.27;;;0.80;99.90;;;;;;5048403;28;20243;-29
2022/12/14 06:52:33;;;;;;;27.30;14.30;;;0.80;99.90;;;;;;5060529;28;20203;-29
2022/12/14 06:55:03;;;;;;;27.90;14.70;;;0.80;99.90;;;;;;5060714;28;20677;-29
2022/12/14 06:57:35;;;;;;;24.87;14.87;;;0.80;99.90;;;;;;5059568;28;20258;-29
2022/12/14 07:00:05;;;;;;;26.43;14.73;;;0.80;99.90;;;;;;5057481;28;20249;-29
2022/12/14 07:02:32;;;;;;;30.13;16.40;;;0.80;99.90;;;;;;5046586;28;20204;-29
2022/12/14 07:05:02;;;;;;;28.17;16.43;;;0.80;99.90;;;;;;5046934;28;20285;-29
2022/12/14 07:07:32;;;;;;;28.67;15.90;;;0.80;99.90;;;;;;5055315;28;20625;-31
2022/12/14 07:10:02;;;;;;;25.43;15.10;;;0.80;99.90;;;;;;5045356;28;20250;-31
2022/12/14 07:12:32;;;;;;;28.20;16.07;;;0.80;99.90;;;;;;5044982;28;20598;-31
2022/12/14 07:14:59;;;;;;;26.70;16.33;;;0.80;99.90;;;;;;5044546;28;20437;-31
2022/12/14 07:17:29;;;;;;;26.07;16.07;;;0.80;99.90;;;;;;5046842;28;20265;-29
2022/12/14 07:19:56;;;;;;;26.33;15.63;;;0.80;99.90;;;;;;5055009;28;20211;-29
2022/12/14 07:22:26;;;;;;;29.07;16.27;;;0.80;99.90;;;;;;5060562;28;20207;-31
2022/12/14 07:24:53;;;;;;;27.07;15.80;;;0.80;99.90;;;;;;5064761;28;20212;-31
2022/12/14 07:27:22;;;;;;;28.20;16.00;;;0.80;99.90;;;;;;5046481;28;20203;-31
2022/12/14 07:29:52;;;;;;;29.30;15.13;;;0.80;99.90;;;;;;5057206;28;20278;-31
2022/12/14 07:32:21;;;;;;;28.00;16.00;;;0.80;99.90;;;;;;5057430;28;20271;-31
2022/12/14 07:34:51;;;;;;;35.43;18.10;;;0.80;99.90;;;;;;5063034;28;20303;-31
2022/12/14 07:37:19;;;;;;;30.27;17.07;;;0.80;99.90;;;;;;5065672;28;20200;-33
2022/12/14 07:39:46;;;;;;;28.70;16.67;;;0.70;99.90;;;;;;5055802;28;20283;-34
2022/12/14 07:42:16;;;;;;;30.00;16.57;;;0.70;99.90;;;;;;5048815;28;20216;-34
2022/12/14 07:44:45;;;;;;;28.93;16.53;;;0.70;99.90;;;;;;5052047;28;20696;-31
2022/12/14 07:47:13;;;;;;;30.00;15.57;;;0.70;99.90;;;;;;5054306;28;20192;-31
2022/12/14 07:49:45;;;;;;;23.47;15.03;;;0.70;99.90;;;;;;5062641;28;20699;-31
2022/12/14 07:52:18;;;;;;;26.33;16.37;;;0.80;99.90;;;;;;5055692;28;20208;-31
2022/12/14 07:54:45;;;;;;;26.77;16.20;;;0.70;99.90;;;;;;5054949;28;20208;-34
2022/12/14 07:57:12;;;;;;;27.03;16.43;;;0.70;99.90;;;;;;5054529;28;20650;-32
2022/12/14 07:59:41;;;;;;;26.27;15.17;;;0.70;99.90;;;;;;5054605;28;20315;-32
2022/12/14 08:02:10;;;;;;;25.97;15.57;;;0.70;99.90;;;;;;5048782;28;20228;-32
2022/12/14 08:04:38;;;;;;;28.87;16.20;;;0.60;99.90;;;;;;5057844;28;20517;-32
2022/12/14 08:07:05;;;;;;;27.57;16.33;;;0.60;99.90;;;;;;5054063;28;20768;-32
2022/12/14 08:09:34;;;;;;;31.60;17.57;;;0.60;99.90;;;;;;5051187;28;20199;-32
2022/12/14 08:12:04;;;;;;;28.37;18.17;;;0.60;99.90;;;;;;5063199;28;20231;-32
2022/12/14 08:14:31;;;;;;;34.30;17.83;;;0.60;99.90;;;;;;5061710;28;20564;-32
2022/12/14 08:17:00;;;;;;;29.50;16.43;;;0.60;99.90;;;;;;5051278;28;20617;-32
2022/12/14 08:19:27;;;;;;;26.90;15.70;;;0.50;99.90;;;;;;5063787;28;20220;-32
2022/12/14 08:21:54;;;;;;;30.00;17.10;;;0.50;99.90;;;;;;5058528;28;20243;-32
2022/12/14 08:24:24;;;;;;;28.83;16.47;;;0.50;99.90;;;;;;5055718;28;20226;-32
2022/12/14 08:26:51;;;;;;;26.10;16.07;;;0.40;99.90;;;;;;5048772;28;20208;-32
2022/12/14 08:29:20;;;;;;;28.73;16.33;;;0.40;99.90;;;;;;5055414;28;20200;-32
2022/12/14 08:31:49;;;;;;;27.47;16.67;;;0.40;99.90;;;;;;5064273;28;20310;-32
2022/12/14 08:34:21;;;;;;;30.10;16.53;;;0.30;99.90;;;;;;5061413;28;20203;-32
2022/12/14 08:36:53;;;;;;;31.80;17.50;;;0.40;99.90;;;;;;5050140;28;20216;-32
2022/12/14 08:39:23;;;;;;;31.53;18.27;;;0.40;99.90;;;;;;5045460;28;20289;-32
2022/12/14 08:41:54;;;;;;;29.53;17.37;;;0.30;99.90;;;;;;5064910;28;20222;-32
2022/12/14 08:44:22;;;;;;;30.50;18.00;;;0.30;99.90;;;;;;5059097;28;20278;-31
2022/12/14 08:46:53;;;;;;;33.17;18.37;;;0.30;99.90;;;;;;5066302;28;20215;-32
2022/12/14 08:49:23;;;;;;;31.20;17.90;;;0.30;99.90;;;;;;5059869;28;20604;-32
2022/12/14 08:51:58;;;;;;;31.20;17.80;;;0.30;99.90;;;;;;5040821;28;20216;-32
2022/12/14 08:54:27;;;;;;;30.47;17.43;;;0.30;99.90;;;;;;5050735;28;20733;-33
2022/12/14 08:56:59;;;;;;;30.80;17.67;;;0.30;99.90;;;;;;5046799;28;20776;-32
2022/12/14 08:59:27;;;;;;;29.03;16.67;;;0.30;99.90;;;;;;5054031;28;20272;-32
2022/12/14 09:02:15;;;;;;;31.67;17.80;;;0.30;99.90;;;;;;5052866;28;20698;-32
2022/12/14 09:04:42;;;;;;;28.77;17.30;;;0.30;99.90;;;;;;5051982;28;20341;-32
2022/12/14 09:07:12;;;;;;;29.60;16.87;;;0.30;99.90;;;;;;5058448;28;20247;-32
2022/12/14 09:09:39;;;;;;;35.50;17.77;;;0.40;99.90;;;;;;5047077;28;20214;-32
2022/12/14 09:12:06;;;;;;;47.10;18.77;;;0.40;99.90;;;;;;5047195;28;20206;-32
2022/12/14 09:14:36;;;;;;;32.43;18.17;;;0.40;99.90;;;;;;5053707;28;20333;-32
2022/12/14 09:17:03;;;;;;;32.77;17.07;;;0.40;99.90;;;;;;5056449;28;20196;-32
2022/12/14 09:19:31;;;;;;;32.93;16.77;;;0.50;99.90;;;;;;5046308;28;20637;-32
2022/12/14 09:22:00;;;;;;;30.47;17.17;;;0.50;99.90;;;;;;5050332;28;20192;-32
2022/12/14 09:24:27;;;;;;;30.40;17.93;;;0.50;99.90;;;;;;5054996;28;20643;-32
2022/12/14 09:27:00;;;;;;;32.47;16.90;;;0.60;99.90;;;;;;5058114;28;20204;-32
2022/12/14 09:29:29;;;;;;;27.00;17.33;;;0.60;99.90;;;;;;5051821;28;20235;-32
2022/12/14 09:32:01;;;;;;;27.20;15.93;;;0.60;99.90;;;;;;5049364;28;20239;-32
2022/12/14 09:34:28;;;;;;;31.30;16.77;;;0.60;99.90;;;;;;5045218;28;20262;-32
2022/12/14 09:37:06;;;;;;;29.50;16.13;;;0.70;99.90;;;;;;5063058;28;20578;-32
2022/12/14 09:39:35;;;;;;;29.77;16.83;;;0.70;99.90;;;;;;5051906;28;20322;-32
2022/12/14 09:42:37;;;;;;;25.07;16.20;;;0.70;99.90;;;;;;5056337;28;20231;-32
2022/12/14 09:45:20;;;;;;;31.03;17.80;;;0.70;99.90;;;;;;5056285;28;20242;-32
2022/12/14 09:48:09;;;;;;;26.53;17.27;;;0.70;99.90;;;;;;5063946;28;20249;-32
2022/12/14 09:50:38;;;;;;;28.10;16.00;;;0.80;99.90;;;;;;5055146;28;20324;-32
2022/12/14 09:53:11;;;;;;;27.40;15.77;;;0.80;99.90;;;;;;5057180;28;20276;-32
2022/12/14 09:55:42;;;;;;;29.93;16.87;;;0.80;99.90;;;;;;5052946;28;20580;-32
2022/12/14 09:58:17;;;;;;;30.03;17.57;;;0.80;99.90;;;;;;5044255;28;20212;-32
2022/12/14 10:00:57;;;;;;;30.07;16.50;;;0.80;99.90;;;;;;5059012;28;20221;-32
2022/12/14 10:03:45;;;;;;;31.20;17.87;;;0.80;99.90;;;;;;5053585;28;20235;-32
2022/12/14 10:06:20;;;;;;;35.23;19.33;;;0.80;99.90;;;;;;5051494;28;20262;-32
2022/12/14 10:09:03;;;;;;;32.70;18.83;;;0.90;99.90;;;;;;5048067;28;20718;-32
2022/12/14 10:11:59;;;;;;;30.90;17.23;;;0.90;99.90;;;;;;5061669;28;20233;-32
2022/12/14 10:14:35;;;;;;;32.10;17.63;;;0.90;99.90;;;;;;5055135;28;20207;-32
2022/12/14 10:17:31;;;;;;;26.47;16.23;;;0.90;99.90;;;;;;5050459;28;20227;-33
2022/12/14 10:20:28;;;;;;;26.87;16.40;;;0.90;99.90;;;;;;5058559;28;20254;-32
2022/12/14 10:23:00;;;;;;;28.20;16.97;;;0.90;99.90;;;;;;5052057;28;20299;-32
2022/12/14 10:25:31;;;;;;;29.87;17.43;;;0.90;99.90;;;;;;5055783;28;20231;-32
2022/12/14 10:28:41;;;;;;;29.77;16.83;;;1.00;99.90;;;;;;5049799;28;20196;-32
2022/12/14 10:31:23;;;;;;;28.97;17.67;;;0.90;99.90;;;;;;5049432;28;20208;-32
2022/12/14 10:34:01;;;;;;;33.90;18.97;;;0.90;99.90;;;;;;5055848;28;20218;-32
2022/12/14 10:36:43;;;;;;;30.30;18.57;;;0.90;99.90;;;;;;5047526;28;20251;-32
2022/12/14 10:40:00;;;;;;;31.13;17.97;;;0.90;99.90;;;;;;5048670;28;20219;-32
2022/12/14 10:42:56;;;;;;;30.50;18.20;;;0.90;99.90;;;;;;5033458;28;20223;-32
2022/12/14 10:45:34;;;;;;;28.93;18.47;;;0.90;99.90;;;;;;5046132;28;20565;-32
2022/12/14 10:48:17;;;;;;;31.60;18.13;;;0.90;99.90;;;;;;5047943;28;20614;-32
2022/12/14 10:50:58;;;;;;;30.07;18.53;;;1.00;99.90;;;;;;5048540;28;20278;-32
2022/12/14 10:53:47;;;;;;;29.60;18.10;;;1.00;99.90;;;;;;5065661;28;20252;-30
2022/12/14 10:56:37;;;;;;;29.63;17.53;;;1.00;99.90;;;;;;5064960;28;20599;-30
2022/12/14 10:59:16;;;;;;;29.53;17.23;;;1.00;99.90;;;;;;5058229;28;20346;-30
2022/12/14 11:02:03;;;;;;;32.43;18.13;;;1.10;99.90;;;;;;5052041;28;20285;-30
2022/12/14 11:04:54;;;;;;;29.33;17.23;;;1.10;99.90;;;;;;5051424;28;20324;-30
2022/12/14 11:07:25;;;;;;;32.13;17.60;;;1.10;99.90;;;;;;5052043;28;20195;-30
2022/12/14 11:10:12;;;;;;;27.20;16.73;;;1.10;99.90;;;;;;5053118;28;20233;-30
2022/12/14 11:12:40;;;;;;;26.93;15.93;;;1.20;99.90;;;;;;5057352;28;20793;-30
2022/12/14 11:15:30;;;;;;;31.37;17.43;;;1.20;99.90;;;;;;5049333;28;20218;-30
2022/12/14 11:18:16;;;;;;;26.47;15.97;;;1.20;99.90;;;;;;5038857;28;20672;-30
2022/12/14 11:20:52;;;;;;;23.87;14.13;;;1.30;99.90;;;;;;5053937;28;20545;-30
2022/12/14 11:23:27;;;;;;;28.63;16.97;;;1.30;99.90;;;;;;5063259;28;20195;-30
2022/12/14 11:26:01;;;;;;;30.33;17.63;;;1.40;99.90;;;;;;5051157;28;20203;-30
2022/12/14 11:28:46;;;;;;;25.77;15.50;;;1.40;99.90;;;;;;5047056;28;20313;-30
2022/12/14 11:31:45;;;;;;;27.67;16.10;;;1.50;99.90;;;;;;5062368;28;20199;-30
2022/12/14 11:34:29;;;;;;;29.17;16.43;;;1.50;99.90;;;;;;5047129;28;20207;-30
2022/12/14 11:37:28;;;;;;;25.93;16.43;;;1.60;99.90;;;;;;5048240;28;20562;-30
2022/12/14 11:39:58;;;;;;;25.40;16.47;;;1.60;99.90;;;;;;5047094;28;20342;-31
2022/12/14 11:42:28;;;;;;;25.57;15.83;;;1.70;99.90;;;;;;5050890;28;20291;-29
2022/12/14 11:45:26;;;;;;;27.43;15.97;;;1.70;99.90;;;;;;5064771;28;20283;-29
2022/12/14 11:48:12;;;;;;;29.83;17.27;;;1.70;99.90;;;;;;5059986;28;20257;-30
2022/12/14 11:50:43;;;;;;;25.53;15.43;;;1.70;99.90;;;;;;5047715;28;20722;-31
2022/12/14 11:53:13;;;;;;;25.53;16.77;;;1.70;99.90;;;;;;5058989;28;20849;-31
2022/12/14 11:55:49;;;;;;;29.33;17.23;;;1.70;99.90;;;;;;5046270;28;20212;-31
2022/12/14 11:58:27;;;;;;;29.37;16.73;;;1.60;99.90;;;;;;5051311;28;20211;-31
2022/12/14 12:01:11;;;;;;;26.30;16.57;;;1.60;99.90;;;;;;5065237;28;20199;-31
2022/12/14 12:03:53;;;;;;;34.73;18.17;;;1.60;99.90;;;;;;5057309;28;20608;-31
2022/12/14 12:06:26;;;;;;;27.50;16.77;;;1.60;99.90;;;;;;5049450;28;20600;-31
2022/12/14 12:08:56;;;;;;;27.00;16.40;;;1.60;99.90;;;;;;5055047;28;20988;-31
2022/12/14 12:11:27;;;;;;;28.87;17.13;;;1.60;99.90;;;;;;5048232;28;20313;-31
2022/12/14 12:14:06;;;;;;;29.67;16.83;;;1.70;99.90;;;;;;5061907;28;20231;-30
2022/12/14 12:16:34;;;;;;;32.00;18.20;;;1.70;99.90;;;;;;5048589;28;20227;-31
2022/12/14 12:19:11;;;;;;;27.93;16.63;;;1.60;99.90;;;;;;5050689;28;20606;-31
2022/12/14 12:21:41;;;;;;;29.83;18.00;;;1.60;99.90;;;;;;5047714;28;20797;-31
2022/12/14 12:24:21;;;;;;;29.60;18.00;;;1.60;99.90;;;;;;5046846;28;20231;-30
2022/12/14 12:26:54;;;;;;;29.53;18.00;;;1.60;99.90;;;;;;5047715;28;20257;-30
2022/12/14 12:29:51;;;;;;;29.00;17.23;;;1.60;99.90;;;;;;5061767;28;20230;-30
2022/12/14 12:32:53;;;;;;;28.37;17.37;;;1.70;99.90;;;;;;5061389;28;20195;-30
2022/12/14 12:35:36;;;;;;;29.80;19.03;;;1.70;99.90;;;;;;5056472;28;20199;-30
2022/12/14 12:38:19;;;;;;;30.70;17.43;;;1.70;99.90;;;;;;5054532;28;20307;-30
2022/12/14 12:41:03;;;;;;;28.07;17.10;;;1.70;99.90;;;;;;5053021;28;20263;-30
2022/12/14 12:43:47;;;;;;;31.67;17.73;;;1.70;99.90;;;;;;5051824;28;20207;-30
2022/12/14 12:46:26;;;;;;;30.37;16.97;;;1.70;99.90;;;;;;5054473;28;20211;-30
2022/12/14 12:49:04;;;;;;;30.07;18.13;;;1.70;99.90;;;;;;5054852;28;20203;-30
2022/12/14 12:51:49;;;;;;;28.23;16.23;;;1.70;99.90;;;;;;5046844;28;20228;-30
2022/12/14 12:54:23;;;;;;;29.50;17.20;;;1.70;99.90;;;;;;5045214;28;20235;-30
2022/12/14 12:56:54;;;;;;;28.30;17.43;;;1.70;99.90;;;;;;5050098;28;20211;-30
2022/12/14 12:59:36;;;;;;;26.63;16.67;;;1.70;99.90;;;;;;5047866;28;20223;-29
2022/12/14 13:02:24;;;;;;;29.83;15.77;;;1.80;99.90;;;;;;5064177;28;20231;-29
2022/12/14 13:04:53;;;;;;;25.57;16.23;;;1.80;99.90;;;;;;5049996;28;20265;-29
2022/12/14 13:07:45;;;;;;;28.23;17.00;;;1.80;99.90;;;;;;5062171;28;20227;-29
2022/12/14 13:10:29;;;;;;;27.73;16.07;;;1.90;99.90;;;;;;5047785;28;20204;-32
2022/12/14 13:13:14;;;;;;;28.23;16.77;;;1.90;99.90;;;;;;5051865;28;20215;-32
2022/12/14 13:15:48;;;;;;;30.40;16.93;;;1.90;99.90;;;;;;5044636;28;20736;-32
2022/12/14 13:18:36;;;;;;;30.47;17.03;;;1.90;99.90;;;;;;5047093;28;20198;-32
2022/12/14 13:21:42;;;;;;;25.90;16.93;;;1.90;99.90;;;;;;5051470;28;20596;-32
2022/12/14 13:24:20;;;;;;;26.53;15.90;;;1.90;99.90;;;;;;5049741;28;20693;-32
2022/12/14 13:26:56;;;;;;;25.67;15.10;;;1.90;99.90;;;;;;5053375;28;20227;-32
2022/12/14 13:29:34;;;;;;;26.40;15.57;;;1.90;99.90;;;;;;5049852;28;20200;-32
2022/12/14 13:32:20;;;;;;;25.63;15.93;;;1.90;99.90;;;;;;5054350;28;20257;-32